sensor_id;sensor_type;location;lat;lon;timestamp;P1;durP1;ratioP1;P2;durP2;ratioP2
18286;SDS011;9269;50.838;12.094;2023-01-29T00:02:21;8.97;;;8.07;;
18286;SDS011;9269;50.838;12.094;2023-01-29T00:04:49;10.87;;;7.80;;
18286;SDS011;9269;50.838;12.094;2023-01-29T00:07:20;9.27;;;8.33;;
18286;SDS011;9269;50.838;12.094;2023-01-29T00:09:49;9.30;;;7.93;;
18286;SDS011;9269;50.838;12.094;2023-01-29T00:12:17;9.60;;;8.60;;
18286;SDS011;9269;50.838;12.094;2023-01-29T00:14:46;9.77;;;8.43;;
18286;SDS011;9269;50.838;12.094;2023-01-29T00:17:14;8.80;;;7.90;;
18286;SDS011;9269;50.838;12.094;2023-01-29T00:19:44;9.30;;;7.60;;
18286;SDS011;9269;50.838;12.094;2023-01-29T00:22:13;8.70;;;7.80;;
18286;SDS011;9269;50.838;12.094;2023-01-29T00:24:42;10.80;;;8.47;;
18286;SDS011;9269;50.838;12.094;2023-01-29T00:27:11;10.33;;;8.37;;
18286;SDS011;9269;50.838;12.094;2023-01-29T00:29:40;9.33;;;8.27;;
18286;SDS011;9269;50.838;12.094;2023-01-29T00:32:09;9.87;;;7.90;;
18286;SDS011;9269;50.838;12.094;2023-01-29T00:34:38;11.67;;;8.63;;
18286;SDS011;9269;50.838;12.094;2023-01-29T00:37:06;8.80;;;7.73;;
18286;SDS011;9269;50.838;12.094;2023-01-29T00:39:35;9.33;;;8.10;;
18286;SDS011;9269;50.838;12.094;2023-01-29T00:42:15;9.87;;;8.77;;
18286;SDS011;9269;50.838;12.094;2023-01-29T00:45:02;8.57;;;7.43;;
18286;SDS011;9269;50.838;12.094;2023-01-29T00:47:31;10.37;;;8.50;;
18286;SDS011;9269;50.838;12.094;2023-01-29T00:50:00;11.17;;;8.47;;
18286;SDS011;9269;50.838;12.094;2023-01-29T00:52:30;8.80;;;7.53;;
18286;SDS011;9269;50.838;12.094;2023-01-29T00:54:59;9.87;;;8.40;;
18286;SDS011;9269;50.838;12.094;2023-01-29T00:57:30;9.47;;;8.03;;
18286;SDS011;9269;50.838;12.094;2023-01-29T01:00:00;9.50;;;8.50;;
18286;SDS011;9269;50.838;12.094;2023-01-29T01:02:29;9.87;;;7.53;;
18286;SDS011;9269;50.838;12.094;2023-01-29T01:05:16;9.93;;;8.30;;
18286;SDS011;9269;50.838;12.094;2023-01-29T01:07:46;9.83;;;7.97;;
18286;SDS011;9269;50.838;12.094;2023-01-29T01:10:17;10.13;;;8.03;;
18286;SDS011;9269;50.838;12.094;2023-01-29T01:12:52;9.80;;;7.47;;
18286;SDS011;9269;50.838;12.094;2023-01-29T01:15:23;10.90;;;8.23;;
18286;SDS011;9269;50.838;12.094;2023-01-29T01:17:53;10.47;;;8.27;;
18286;SDS011;9269;50.838;12.094;2023-01-29T01:20:27;9.27;;;7.93;;
18286;SDS011;9269;50.838;12.094;2023-01-29T01:22:58;10.17;;;8.43;;
18286;SDS011;9269;50.838;12.094;2023-01-29T01:25:27;8.83;;;7.90;;
18286;SDS011;9269;50.838;12.094;2023-01-29T01:28:02;10.90;;;8.80;;
18286;SDS011;9269;50.838;12.094;2023-01-29T01:30:34;9.17;;;7.93;;
18286;SDS011;9269;50.838;12.094;2023-01-29T01:33:08;9.37;;;8.20;;
18286;SDS011;9269;50.838;12.094;2023-01-29T01:35:41;9.50;;;8.00;;
18286;SDS011;9269;50.838;12.094;2023-01-29T01:38:09;9.23;;;8.27;;
18286;SDS011;9269;50.838;12.094;2023-01-29T01:40:42;10.00;;;8.77;;
18286;SDS011;9269;50.838;12.094;2023-01-29T01:43:16;9.60;;;8.13;;
18286;SDS011;9269;50.838;12.094;2023-01-29T01:45:45;11.67;;;9.00;;
18286;SDS011;9269;50.838;12.094;2023-01-29T01:48:18;9.67;;;8.37;;
18286;SDS011;9269;50.838;12.094;2023-01-29T01:50:51;9.33;;;8.33;;
18286;SDS011;9269;50.838;12.094;2023-01-29T01:53:28;10.27;;;8.77;;
18286;SDS011;9269;50.838;12.094;2023-01-29T01:56:08;10.03;;;8.87;;
18286;SDS011;9269;50.838;12.094;2023-01-29T01:58:47;10.90;;;8.03;;
18286;SDS011;9269;50.838;12.094;2023-01-29T02:01:21;9.30;;;7.67;;
18286;SDS011;9269;50.838;12.094;2023-01-29T02:03:59;12.50;;;8.57;;
18286;SDS011;9269;50.838;12.094;2023-01-29T02:06:47;9.13;;;7.97;;
18286;SDS011;9269;50.838;12.094;2023-01-29T02:09:36;9.37;;;7.73;;
18286;SDS011;9269;50.838;12.094;2023-01-29T02:12:12;9.40;;;7.97;;
18286;SDS011;9269;50.838;12.094;2023-01-29T02:14:45;11.43;;;8.20;;
18286;SDS011;9269;50.838;12.094;2023-01-29T02:17:14;10.87;;;8.63;;
18286;SDS011;9269;50.838;12.094;2023-01-29T02:19:49;10.63;;;8.97;;
18286;SDS011;9269;50.838;12.094;2023-01-29T02:22:40;11.53;;;9.20;;
18286;SDS011;9269;50.838;12.094;2023-01-29T02:25:30;9.53;;;8.53;;
18286;SDS011;9269;50.838;12.094;2023-01-29T02:28:22;11.40;;;8.50;;
18286;SDS011;9269;50.838;12.094;2023-01-29T02:31:00;11.30;;;9.10;;
18286;SDS011;9269;50.838;12.094;2023-01-29T02:33:40;10.07;;;8.57;;
18286;SDS011;9269;50.838;12.094;2023-01-29T02:36:18;9.33;;;8.33;;
18286;SDS011;9269;50.838;12.094;2023-01-29T02:38:56;9.13;;;8.13;;
18286;SDS011;9269;50.838;12.094;2023-01-29T02:41:33;10.33;;;8.43;;
18286;SDS011;9269;50.838;12.094;2023-01-29T02:44:11;9.27;;;8.27;;
18286;SDS011;9269;50.838;12.094;2023-01-29T02:46:51;10.60;;;8.97;;
18286;SDS011;9269;50.838;12.094;2023-01-29T02:49:30;9.80;;;8.80;;
18286;SDS011;9269;50.838;12.094;2023-01-29T02:52:05;9.30;;;8.23;;
18286;SDS011;9269;50.838;12.094;2023-01-29T02:54:41;11.73;;;8.73;;
18286;SDS011;9269;50.838;12.094;2023-01-29T02:57:15;12.13;;;9.30;;
18286;SDS011;9269;50.838;12.094;2023-01-29T03:00:09;9.67;;;8.43;;
18286;SDS011;9269;50.838;12.094;2023-01-29T03:02:43;10.77;;;8.50;;
18286;SDS011;9269;50.838;12.094;2023-01-29T03:05:16;10.73;;;9.17;;
18286;SDS011;9269;50.838;12.094;2023-01-29T03:07:52;11.13;;;9.37;;
18286;SDS011;9269;50.838;12.094;2023-01-29T03:10:23;11.67;;;9.13;;
18286;SDS011;9269;50.838;12.094;2023-01-29T03:12:58;10.23;;;9.13;;
18286;SDS011;9269;50.838;12.094;2023-01-29T03:15:34;13.00;;;10.07;;
18286;SDS011;9269;50.838;12.094;2023-01-29T03:18:09;10.93;;;8.90;;
18286;SDS011;9269;50.838;12.094;2023-01-29T03:20:41;11.13;;;8.63;;
18286;SDS011;9269;50.838;12.094;2023-01-29T03:23:15;12.07;;;9.10;;
18286;SDS011;9269;50.838;12.094;2023-01-29T03:25:50;11.50;;;9.23;;
18286;SDS011;9269;50.838;12.094;2023-01-29T03:28:40;11.07;;;9.33;;
18286;SDS011;9269;50.838;12.094;2023-01-29T03:31:31;10.43;;;9.07;;
18286;SDS011;9269;50.838;12.094;2023-01-29T03:34:19;11.37;;;8.60;;
18286;SDS011;9269;50.838;12.094;2023-01-29T03:36:55;11.57;;;8.83;;
18286;SDS011;9269;50.838;12.094;2023-01-29T03:39:29;9.67;;;8.33;;
18286;SDS011;9269;50.838;12.094;2023-01-29T03:41:59;10.37;;;9.10;;
18286;SDS011;9269;50.838;12.094;2023-01-29T03:44:32;11.47;;;8.87;;
18286;SDS011;9269;50.838;12.094;2023-01-29T03:47:13;9.77;;;8.57;;
18286;SDS011;9269;50.838;12.094;2023-01-29T03:49:51;11.13;;;8.50;;
18286;SDS011;9269;50.838;12.094;2023-01-29T03:52:26;13.97;;;9.47;;
18286;SDS011;9269;50.838;12.094;2023-01-29T03:55:06;9.63;;;7.97;;
18286;SDS011;9269;50.838;12.094;2023-01-29T03:57:43;12.00;;;9.43;;
18286;SDS011;9269;50.838;12.094;2023-01-29T04:00:21;10.37;;;8.87;;
18286;SDS011;9269;50.838;12.094;2023-01-29T04:02:58;11.30;;;9.17;;
18286;SDS011;9269;50.838;12.094;2023-01-29T04:05:35;10.97;;;7.93;;
18286;SDS011;9269;50.838;12.094;2023-01-29T04:08:10;10.50;;;8.97;;
18286;SDS011;9269;50.838;12.094;2023-01-29T04:10:46;10.23;;;8.40;;
18286;SDS011;9269;50.838;12.094;2023-01-29T04:13:17;11.70;;;9.03;;
18286;SDS011;9269;50.838;12.094;2023-01-29T04:15:48;9.73;;;8.53;;
18286;SDS011;9269;50.838;12.094;2023-01-29T04:18:22;10.80;;;8.97;;
18286;SDS011;9269;50.838;12.094;2023-01-29T04:20:51;11.20;;;9.57;;
18286;SDS011;9269;50.838;12.094;2023-01-29T04:23:22;10.83;;;9.43;;
18286;SDS011;9269;50.838;12.094;2023-01-29T04:25:55;11.13;;;9.30;;
18286;SDS011;9269;50.838;12.094;2023-01-29T04:28:43;11.77;;;9.60;;
18286;SDS011;9269;50.838;12.094;2023-01-29T04:31:21;12.13;;;9.03;;
18286;SDS011;9269;50.838;12.094;2023-01-29T04:33:57;10.83;;;9.17;;
18286;SDS011;9269;50.838;12.094;2023-01-29T04:36:33;11.23;;;8.50;;
18286;SDS011;9269;50.838;12.094;2023-01-29T04:39:08;11.80;;;9.60;;
18286;SDS011;9269;50.838;12.094;2023-01-29T04:41:41;11.10;;;9.03;;
18286;SDS011;9269;50.838;12.094;2023-01-29T04:44:19;11.33;;;9.10;;
18286;SDS011;9269;50.838;12.094;2023-01-29T04:46:54;10.27;;;8.47;;
18286;SDS011;9269;50.838;12.094;2023-01-29T04:49:33;10.00;;;8.77;;
18286;SDS011;9269;50.838;12.094;2023-01-29T04:52:11;11.23;;;8.67;;
18286;SDS011;9269;50.838;12.094;2023-01-29T04:54:50;11.40;;;9.07;;
18286;SDS011;9269;50.838;12.094;2023-01-29T04:57:29;11.00;;;8.90;;
18286;SDS011;9269;50.838;12.094;2023-01-29T05:00:04;11.47;;;8.77;;
18286;SDS011;9269;50.838;12.094;2023-01-29T05:02:37;11.27;;;8.97;;
18286;SDS011;9269;50.838;12.094;2023-01-29T05:05:09;11.57;;;9.13;;
18286;SDS011;9269;50.838;12.094;2023-01-29T05:07:46;11.97;;;8.67;;
18286;SDS011;9269;50.838;12.094;2023-01-29T05:10:18;9.67;;;8.63;;
18286;SDS011;9269;50.838;12.094;2023-01-29T05:12:50;10.80;;;8.60;;
18286;SDS011;9269;50.838;12.094;2023-01-29T05:15:27;11.30;;;8.73;;
18286;SDS011;9269;50.838;12.094;2023-01-29T05:18:04;9.87;;;8.30;;
18286;SDS011;9269;50.838;12.094;2023-01-29T05:20:38;9.97;;;7.90;;
18286;SDS011;9269;50.838;12.094;2023-01-29T05:23:08;10.10;;;7.90;;
18286;SDS011;9269;50.838;12.094;2023-01-29T05:25:42;11.30;;;9.17;;
18286;SDS011;9269;50.838;12.094;2023-01-29T05:28:12;10.20;;;8.47;;
18286;SDS011;9269;50.838;12.094;2023-01-29T05:30:48;13.00;;;9.17;;
18286;SDS011;9269;50.838;12.094;2023-01-29T05:33:22;10.80;;;8.70;;
18286;SDS011;9269;50.838;12.094;2023-01-29T05:35:57;8.80;;;7.70;;
18286;SDS011;9269;50.838;12.094;2023-01-29T05:38:26;10.07;;;8.10;;
18286;SDS011;9269;50.838;12.094;2023-01-29T05:40:56;10.87;;;8.10;;
18286;SDS011;9269;50.838;12.094;2023-01-29T05:43:28;11.03;;;8.20;;
18286;SDS011;9269;50.838;12.094;2023-01-29T05:46:00;10.43;;;8.27;;
18286;SDS011;9269;50.838;12.094;2023-01-29T05:48:30;9.27;;;7.97;;
18286;SDS011;9269;50.838;12.094;2023-01-29T05:51:03;10.60;;;8.17;;
18286;SDS011;9269;50.838;12.094;2023-01-29T05:53:33;8.37;;;7.47;;
18286;SDS011;9269;50.838;12.094;2023-01-29T05:56:03;8.50;;;7.10;;
18286;SDS011;9269;50.838;12.094;2023-01-29T05:58:33;8.97;;;7.53;;
18286;SDS011;9269;50.838;12.094;2023-01-29T06:01:09;11.20;;;8.90;;
18286;SDS011;9269;50.838;12.094;2023-01-29T06:03:39;10.40;;;8.40;;
18286;SDS011;9269;50.838;12.094;2023-01-29T06:06:09;10.50;;;7.53;;
18286;SDS011;9269;50.838;12.094;2023-01-29T06:08:38;9.30;;;8.13;;
18286;SDS011;9269;50.838;12.094;2023-01-29T06:11:09;10.67;;;8.60;;
18286;SDS011;9269;50.838;12.094;2023-01-29T06:13:39;9.40;;;8.30;;
18286;SDS011;9269;50.838;12.094;2023-01-29T06:16:08;9.57;;;8.60;;
18286;SDS011;9269;50.838;12.094;2023-01-29T06:18:39;9.60;;;8.53;;
18286;SDS011;9269;50.838;12.094;2023-01-29T06:21:11;11.03;;;7.47;;
18286;SDS011;9269;50.838;12.094;2023-01-29T06:23:41;8.57;;;7.67;;
18286;SDS011;9269;50.838;12.094;2023-01-29T06:26:11;8.27;;;6.77;;
18286;SDS011;9269;50.838;12.094;2023-01-29T06:28:41;8.70;;;6.43;;
18286;SDS011;9269;50.838;12.094;2023-01-29T06:31:13;10.40;;;7.90;;
18286;SDS011;9269;50.838;12.094;2023-01-29T06:34:02;9.33;;;8.00;;
18286;SDS011;9269;50.838;12.094;2023-01-29T06:36:32;10.83;;;7.93;;
18286;SDS011;9269;50.838;12.094;2023-01-29T06:39:01;11.43;;;8.60;;
18286;SDS011;9269;50.838;12.094;2023-01-29T06:41:31;12.30;;;9.13;;
18286;SDS011;9269;50.838;12.094;2023-01-29T06:44:00;8.50;;;7.57;;
18286;SDS011;9269;50.838;12.094;2023-01-29T06:46:30;10.17;;;8.80;;
18286;SDS011;9269;50.838;12.094;2023-01-29T06:48:58;10.33;;;8.60;;
18286;SDS011;9269;50.838;12.094;2023-01-29T06:51:27;11.10;;;9.67;;
18286;SDS011;9269;50.838;12.094;2023-01-29T06:54:00;12.23;;;10.30;;
18286;SDS011;9269;50.838;12.094;2023-01-29T06:56:29;13.77;;;10.07;;
18286;SDS011;9269;50.838;12.094;2023-01-29T06:58:57;10.00;;;8.83;;
18286;SDS011;9269;50.838;12.094;2023-01-29T07:01:26;10.00;;;8.57;;
18286;SDS011;9269;50.838;12.094;2023-01-29T07:04:02;11.10;;;9.60;;
18286;SDS011;9269;50.838;12.094;2023-01-29T07:06:34;9.70;;;8.67;;
18286;SDS011;9269;50.838;12.094;2023-01-29T07:09:04;13.23;;;8.73;;
18286;SDS011;9269;50.838;12.094;2023-01-29T07:11:33;9.97;;;8.97;;
18286;SDS011;9269;50.838;12.094;2023-01-29T07:14:03;10.43;;;9.33;;
18286;SDS011;9269;50.838;12.094;2023-01-29T07:16:32;10.30;;;9.20;;
18286;SDS011;9269;50.838;12.094;2023-01-29T07:19:02;10.50;;;9.40;;
18286;SDS011;9269;50.838;12.094;2023-01-29T07:21:30;12.73;;;9.10;;
18286;SDS011;9269;50.838;12.094;2023-01-29T07:24:01;10.53;;;8.83;;
18286;SDS011;9269;50.838;12.094;2023-01-29T07:26:30;12.07;;;9.37;;
18286;SDS011;9269;50.838;12.094;2023-01-29T07:28:59;10.97;;;8.77;;
18286;SDS011;9269;50.838;12.094;2023-01-29T07:31:27;9.70;;;8.70;;
18286;SDS011;9269;50.838;12.094;2023-01-29T07:33:56;9.90;;;8.27;;
18286;SDS011;9269;50.838;12.094;2023-01-29T07:36:25;11.10;;;9.57;;
18286;SDS011;9269;50.838;12.094;2023-01-29T07:38:55;11.87;;;9.00;;
18286;SDS011;9269;50.838;12.094;2023-01-29T07:41:25;12.83;;;9.07;;
18286;SDS011;9269;50.838;12.094;2023-01-29T07:43:54;10.17;;;8.27;;
18286;SDS011;9269;50.838;12.094;2023-01-29T07:46:23;10.20;;;8.50;;
18286;SDS011;9269;50.838;12.094;2023-01-29T07:48:52;11.47;;;8.77;;
18286;SDS011;9269;50.838;12.094;2023-01-29T07:51:20;9.80;;;8.50;;
18286;SDS011;9269;50.838;12.094;2023-01-29T07:53:49;9.57;;;8.47;;
18286;SDS011;9269;50.838;12.094;2023-01-29T07:56:18;9.17;;;8.10;;
18286;SDS011;9269;50.838;12.094;2023-01-29T07:58:48;8.90;;;7.97;;
18286;SDS011;9269;50.838;12.094;2023-01-29T08:01:17;9.73;;;8.40;;
18286;SDS011;9269;50.838;12.094;2023-01-29T08:03:47;8.93;;;7.73;;
18286;SDS011;9269;50.838;12.094;2023-01-29T08:06:17;10.67;;;8.50;;
18286;SDS011;9269;50.838;12.094;2023-01-29T08:08:46;9.73;;;8.70;;
18286;SDS011;9269;50.838;12.094;2023-01-29T08:11:15;9.37;;;8.07;;
18286;SDS011;9269;50.838;12.094;2023-01-29T08:13:43;10.07;;;8.57;;
18286;SDS011;9269;50.838;12.094;2023-01-29T08:16:14;10.43;;;9.10;;
18286;SDS011;9269;50.838;12.094;2023-01-29T08:18:43;11.43;;;8.97;;
18286;SDS011;9269;50.838;12.094;2023-01-29T08:21:14;9.97;;;8.07;;
18286;SDS011;9269;50.838;12.094;2023-01-29T08:23:44;11.47;;;8.77;;
18286;SDS011;9269;50.838;12.094;2023-01-29T08:26:12;11.33;;;8.83;;
18286;SDS011;9269;50.838;12.094;2023-01-29T08:28:41;9.23;;;8.07;;
18286;SDS011;9269;50.838;12.094;2023-01-29T08:31:16;12.07;;;10.27;;
18286;SDS011;9269;50.838;12.094;2023-01-29T08:33:52;11.60;;;9.90;;
18286;SDS011;9269;50.838;12.094;2023-01-29T08:36:25;12.27;;;9.07;;
18286;SDS011;9269;50.838;12.094;2023-01-29T08:38:54;12.10;;;9.87;;
18286;SDS011;9269;50.838;12.094;2023-01-29T08:41:23;12.63;;;10.07;;
18286;SDS011;9269;50.838;12.094;2023-01-29T08:43:51;11.00;;;9.57;;
18286;SDS011;9269;50.838;12.094;2023-01-29T08:46:21;9.60;;;8.60;;
18286;SDS011;9269;50.838;12.094;2023-01-29T08:48:53;12.23;;;9.77;;
18286;SDS011;9269;50.838;12.094;2023-01-29T08:51:23;12.50;;;9.70;;
18286;SDS011;9269;50.838;12.094;2023-01-29T08:53:52;10.10;;;8.57;;
18286;SDS011;9269;50.838;12.094;2023-01-29T08:56:22;11.57;;;9.20;;
18286;SDS011;9269;50.838;12.094;2023-01-29T08:58:51;9.90;;;6.93;;
18286;SDS011;9269;50.838;12.094;2023-01-29T09:01:20;10.83;;;8.57;;
18286;SDS011;9269;50.838;12.094;2023-01-29T09:03:50;14.50;;;10.53;;
18286;SDS011;9269;50.838;12.094;2023-01-29T09:06:19;12.03;;;9.37;;
18286;SDS011;9269;50.838;12.094;2023-01-29T09:08:48;14.97;;;10.93;;
18286;SDS011;9269;50.838;12.094;2023-01-29T09:14:16;12.93;;;10.30;;
18286;SDS011;9269;50.838;12.094;2023-01-29T09:16:46;12.60;;;9.60;;
18286;SDS011;9269;50.838;12.094;2023-01-29T09:19:16;11.70;;;9.63;;
18286;SDS011;9269;50.838;12.094;2023-01-29T09:21:45;11.53;;;10.33;;
18286;SDS011;9269;50.838;12.094;2023-01-29T09:24:17;12.43;;;9.37;;
18286;SDS011;9269;50.838;12.094;2023-01-29T09:26:46;12.63;;;10.60;;
18286;SDS011;9269;50.838;12.094;2023-01-29T09:29:15;11.00;;;9.83;;
18286;SDS011;9269;50.838;12.094;2023-01-29T09:31:46;12.63;;;9.03;;
18286;SDS011;9269;50.838;12.094;2023-01-29T09:34:16;11.17;;;9.17;;
18286;SDS011;9269;50.838;12.094;2023-01-29T09:36:45;10.90;;;8.97;;
18286;SDS011;9269;50.838;12.094;2023-01-29T09:39:14;14.13;;;10.47;;
18286;SDS011;9269;50.838;12.094;2023-01-29T09:41:45;14.20;;;10.03;;
18286;SDS011;9269;50.838;12.094;2023-01-29T09:44:26;16.10;;;12.10;;
18286;SDS011;9269;50.838;12.094;2023-01-29T09:47:09;18.67;;;12.33;;
18286;SDS011;9269;50.838;12.094;2023-01-29T09:49:42;17.03;;;11.97;;
18286;SDS011;9269;50.838;12.094;2023-01-29T09:52:15;15.67;;;9.70;;
18286;SDS011;9269;50.838;12.094;2023-01-29T09:54:49;19.07;;;12.33;;
18286;SDS011;9269;50.838;12.094;2023-01-29T09:57:23;17.13;;;12.33;;
18286;SDS011;9269;50.838;12.094;2023-01-29T09:59:56;16.27;;;11.10;;
18286;SDS011;9269;50.838;12.094;2023-01-29T10:02:39;17.23;;;12.50;;
18286;SDS011;9269;50.838;12.094;2023-01-29T10:05:23;14.83;;;11.20;;
18286;SDS011;9269;50.838;12.094;2023-01-29T10:08:24;18.33;;;12.57;;
18286;SDS011;9269;50.838;12.094;2023-01-29T10:11:07;18.43;;;12.13;;
18286;SDS011;9269;50.838;12.094;2023-01-29T10:13:47;15.53;;;10.17;;
18286;SDS011;9269;50.838;12.094;2023-01-29T10:16:30;14.73;;;10.87;;
18286;SDS011;9269;50.838;12.094;2023-01-29T10:19:12;13.67;;;10.13;;
18286;SDS011;9269;50.838;12.094;2023-01-29T10:21:54;13.73;;;10.73;;
18286;SDS011;9269;50.838;12.094;2023-01-29T10:24:40;14.73;;;10.40;;
18286;SDS011;9269;50.838;12.094;2023-01-29T10:27:14;15.23;;;9.33;;
18286;SDS011;9269;50.838;12.094;2023-01-29T10:29:45;18.70;;;11.83;;
18286;SDS011;9269;50.838;12.094;2023-01-29T10:32:16;16.87;;;11.60;;
18286;SDS011;9269;50.838;12.094;2023-01-29T10:34:53;15.30;;;11.10;;
18286;SDS011;9269;50.838;12.094;2023-01-29T10:37:27;14.17;;;11.00;;
18286;SDS011;9269;50.838;12.094;2023-01-29T10:40:10;14.00;;;10.63;;
18286;SDS011;9269;50.838;12.094;2023-01-29T10:42:46;13.97;;;10.97;;
18286;SDS011;9269;50.838;12.094;2023-01-29T10:45:21;14.20;;;9.00;;
18286;SDS011;9269;50.838;12.094;2023-01-29T10:48:08;15.13;;;10.80;;
18286;SDS011;9269;50.838;12.094;2023-01-29T10:50:58;13.43;;;10.20;;
18286;SDS011;9269;50.838;12.094;2023-01-29T10:53:41;13.50;;;10.90;;
18286;SDS011;9269;50.838;12.094;2023-01-29T10:59:22;16.20;;;10.73;;
18286;SDS011;9269;50.838;12.094;2023-01-29T11:02:09;14.80;;;9.67;;
18286;SDS011;9269;50.838;12.094;2023-01-29T11:04:43;14.80;;;9.63;;
18286;SDS011;9269;50.838;12.094;2023-01-29T11:07:14;22.53;;;13.50;;
18286;SDS011;9269;50.838;12.094;2023-01-29T11:09:49;19.23;;;11.70;;
18286;SDS011;9269;50.838;12.094;2023-01-29T11:12:24;15.27;;;10.77;;
18286;SDS011;9269;50.838;12.094;2023-01-29T11:14:59;11.70;;;9.37;;
18286;SDS011;9269;50.838;12.094;2023-01-29T11:17:33;13.00;;;9.10;;
18286;SDS011;9269;50.838;12.094;2023-01-29T11:20:02;9.73;;;7.70;;
18286;SDS011;9269;50.838;12.094;2023-01-29T11:22:54;14.87;;;9.57;;
18286;SDS011;9269;50.838;12.094;2023-01-29T11:25:24;12.70;;;9.17;;
18286;SDS011;9269;50.838;12.094;2023-01-29T11:27:54;12.77;;;9.57;;
18286;SDS011;9269;50.838;12.094;2023-01-29T11:30:40;12.87;;;9.30;;
18286;SDS011;9269;50.838;12.094;2023-01-29T11:33:17;19.67;;;11.37;;
18286;SDS011;9269;50.838;12.094;2023-01-29T11:35:49;12.47;;;9.97;;
18286;SDS011;9269;50.838;12.094;2023-01-29T11:38:20;17.27;;;11.17;;
18286;SDS011;9269;50.838;12.094;2023-01-29T11:40:51;13.67;;;9.07;;
18286;SDS011;9269;50.838;12.094;2023-01-29T11:43:31;15.80;;;10.47;;
18286;SDS011;9269;50.838;12.094;2023-01-29T11:46:01;13.27;;;10.63;;
18286;SDS011;9269;50.838;12.094;2023-01-29T11:48:33;12.83;;;10.20;;
18286;SDS011;9269;50.838;12.094;2023-01-29T11:51:10;13.37;;;9.03;;
18286;SDS011;9269;50.838;12.094;2023-01-29T11:53:50;13.10;;;9.13;;
18286;SDS011;9269;50.838;12.094;2023-01-29T11:56:38;10.67;;;8.53;;
18286;SDS011;9269;50.838;12.094;2023-01-29T11:59:15;11.90;;;10.17;;
18286;SDS011;9269;50.838;12.094;2023-01-29T12:02:01;13.83;;;9.80;;
18286;SDS011;9269;50.838;12.094;2023-01-29T12:04:32;13.33;;;10.50;;
18286;SDS011;9269;50.838;12.094;2023-01-29T12:07:10;14.73;;;11.13;;
18286;SDS011;9269;50.838;12.094;2023-01-29T12:09:48;16.87;;;12.30;;
18286;SDS011;9269;50.838;12.094;2023-01-29T12:12:26;16.73;;;11.53;;
18286;SDS011;9269;50.838;12.094;2023-01-29T12:15:05;14.47;;;10.67;;
18286;SDS011;9269;50.838;12.094;2023-01-29T12:17:44;12.33;;;8.90;;
18286;SDS011;9269;50.838;12.094;2023-01-29T12:20:26;11.87;;;9.33;;
18286;SDS011;9269;50.838;12.094;2023-01-29T12:23:02;12.63;;;9.60;;
18286;SDS011;9269;50.838;12.094;2023-01-29T12:25:41;11.90;;;10.17;;
18286;SDS011;9269;50.838;12.094;2023-01-29T12:28:18;13.03;;;9.90;;
18286;SDS011;9269;50.838;12.094;2023-01-29T12:30:57;13.53;;;10.30;;
18286;SDS011;9269;50.838;12.094;2023-01-29T12:33:40;10.60;;;7.77;;
18286;SDS011;9269;50.838;12.094;2023-01-29T12:36:20;10.30;;;8.00;;
18286;SDS011;9269;50.838;12.094;2023-01-29T12:38:53;11.53;;;8.47;;
18286;SDS011;9269;50.838;12.094;2023-01-29T12:41:31;10.30;;;8.53;;
18286;SDS011;9269;50.838;12.094;2023-01-29T12:44:09;11.47;;;8.33;;
18286;SDS011;9269;50.838;12.094;2023-01-29T12:46:45;11.10;;;8.10;;
18286;SDS011;9269;50.838;12.094;2023-01-29T12:49:23;10.03;;;8.50;;
18286;SDS011;9269;50.838;12.094;2023-01-29T12:51:57;12.93;;;9.10;;
18286;SDS011;9269;50.838;12.094;2023-01-29T12:54:31;13.60;;;9.93;;
18286;SDS011;9269;50.838;12.094;2023-01-29T12:57:09;10.03;;;8.30;;
18286;SDS011;9269;50.838;12.094;2023-01-29T12:59:48;10.87;;;7.37;;
18286;SDS011;9269;50.838;12.094;2023-01-29T13:02:25;10.53;;;8.87;;
18286;SDS011;9269;50.838;12.094;2023-01-29T13:05:00;13.00;;;9.40;;
18286;SDS011;9269;50.838;12.094;2023-01-29T13:07:34;14.80;;;10.93;;
18286;SDS011;9269;50.838;12.094;2023-01-29T13:10:08;14.53;;;11.17;;
18286;SDS011;9269;50.838;12.094;2023-01-29T13:12:45;13.23;;;10.33;;
18286;SDS011;9269;50.838;12.094;2023-01-29T13:15:21;12.53;;;9.87;;
18286;SDS011;9269;50.838;12.094;2023-01-29T13:17:55;11.87;;;8.00;;
18286;SDS011;9269;50.838;12.094;2023-01-29T13:20:31;10.80;;;8.27;;
18286;SDS011;9269;50.838;12.094;2023-01-29T13:23:05;10.20;;;7.23;;
18286;SDS011;9269;50.838;12.094;2023-01-29T13:25:43;12.10;;;8.97;;
18286;SDS011;9269;50.838;12.094;2023-01-29T13:28:17;11.57;;;9.03;;
18286;SDS011;9269;50.838;12.094;2023-01-29T13:33:38;12.10;;;8.83;;
18286;SDS011;9269;50.838;12.094;2023-01-29T13:36:12;10.30;;;8.47;;
18286;SDS011;9269;50.838;12.094;2023-01-29T13:38:43;10.87;;;8.50;;
18286;SDS011;9269;50.838;12.094;2023-01-29T13:41:13;12.17;;;9.40;;
18286;SDS011;9269;50.838;12.094;2023-01-29T13:43:43;12.00;;;9.00;;
18286;SDS011;9269;50.838;12.094;2023-01-29T13:46:16;11.57;;;8.63;;
18286;SDS011;9269;50.838;12.094;2023-01-29T13:48:48;13.27;;;9.33;;
18286;SDS011;9269;50.838;12.094;2023-01-29T13:51:20;10.73;;;8.87;;
18286;SDS011;9269;50.838;12.094;2023-01-29T13:53:57;21.70;;;13.37;;
18286;SDS011;9269;50.838;12.094;2023-01-29T13:56:41;15.37;;;9.70;;
18286;SDS011;9269;50.838;12.094;2023-01-29T13:59:22;12.80;;;8.57;;
18286;SDS011;9269;50.838;12.094;2023-01-29T14:02:19;12.80;;;9.03;;
18286;SDS011;9269;50.838;12.094;2023-01-29T14:08:08;11.40;;;9.07;;
18286;SDS011;9269;50.838;12.094;2023-01-29T14:14:00;13.77;;;9.97;;
18286;SDS011;9269;50.838;12.094;2023-01-29T14:16:34;11.67;;;9.43;;
18286;SDS011;9269;50.838;12.094;2023-01-29T14:19:04;12.33;;;9.80;;
18286;SDS011;9269;50.838;12.094;2023-01-29T14:21:33;12.03;;;9.47;;
18286;SDS011;9269;50.838;12.094;2023-01-29T14:24:08;12.03;;;8.90;;
18286;SDS011;9269;50.838;12.094;2023-01-29T14:26:44;14.17;;;9.73;;
18286;SDS011;9269;50.838;12.094;2023-01-29T14:29:17;13.20;;;9.23;;
18286;SDS011;9269;50.838;12.094;2023-01-29T14:32:08;10.67;;;8.73;;
18286;SDS011;9269;50.838;12.094;2023-01-29T14:34:43;13.87;;;10.00;;
18286;SDS011;9269;50.838;12.094;2023-01-29T14:37:18;13.17;;;9.23;;
18286;SDS011;9269;50.838;12.094;2023-01-29T14:39:51;11.87;;;8.43;;
18286;SDS011;9269;50.838;12.094;2023-01-29T14:42:24;12.63;;;8.77;;
18286;SDS011;9269;50.838;12.094;2023-01-29T14:44:57;12.57;;;9.77;;
18286;SDS011;9269;50.838;12.094;2023-01-29T14:50:42;12.43;;;8.80;;
18286;SDS011;9269;50.838;12.094;2023-01-29T14:53:26;12.00;;;9.17;;
18286;SDS011;9269;50.838;12.094;2023-01-29T14:56:10;10.80;;;9.17;;
18286;SDS011;9269;50.838;12.094;2023-01-29T14:58:43;11.93;;;9.17;;
18286;SDS011;9269;50.838;12.094;2023-01-29T15:01:19;10.23;;;8.50;;
18286;SDS011;9269;50.838;12.094;2023-01-29T15:03:52;13.10;;;9.70;;
18286;SDS011;9269;50.838;12.094;2023-01-29T15:06:28;10.80;;;8.97;;
18286;SDS011;9269;50.838;12.094;2023-01-29T15:09:03;11.67;;;9.27;;
18286;SDS011;9269;50.838;12.094;2023-01-29T15:11:43;14.53;;;10.00;;
18286;SDS011;9269;50.838;12.094;2023-01-29T15:14:19;11.70;;;8.83;;
18286;SDS011;9269;50.838;12.094;2023-01-29T15:16:58;12.33;;;9.33;;
18286;SDS011;9269;50.838;12.094;2023-01-29T15:19:36;11.80;;;9.53;;
18286;SDS011;9269;50.838;12.094;2023-01-29T15:22:12;10.57;;;8.43;;
18286;SDS011;9269;50.838;12.094;2023-01-29T15:24:46;10.70;;;8.07;;
18286;SDS011;9269;50.838;12.094;2023-01-29T15:27:28;12.13;;;8.53;;
18286;SDS011;9269;50.838;12.094;2023-01-29T15:29:59;11.07;;;8.87;;
18286;SDS011;9269;50.838;12.094;2023-01-29T15:32:32;13.67;;;9.30;;
18286;SDS011;9269;50.838;12.094;2023-01-29T15:35:06;13.23;;;9.53;;
18286;SDS011;9269;50.838;12.094;2023-01-29T15:37:38;10.77;;;8.47;;